createdAt,value
2023-01-01T00:02:24.620Z,30.58
2023-01-01T00:04:51.438Z,27.33
2023-01-01T00:07:18.133Z,25.85
2023-01-01T00:10:03.510Z,27.15
2023-01-01T00:12:32.448Z,30.42
2023-01-01T00:14:59.310Z,30.15
2023-01-01T00:17:29.443Z,31.60
2023-01-01T00:19:56.225Z,31.25
2023-01-01T00:25:17.707Z,34.83
2023-01-01T00:27:44.667Z,33.10
2023-01-01T00:30:12.114Z,29.05
2023-01-01T00:32:38.989Z,33.08
2023-01-01T00:35:06.534Z,31.80
2023-01-01T00:37:33.337Z,32.65
2023-01-01T00:39:59.999Z,28.98
2023-01-01T00:42:26.748Z,27.80
2023-01-01T00:44:53.447Z,29.70
2023-01-01T00:47:20.111Z,29.45
2023-01-01T00:49:46.781Z,30.17
2023-01-01T00:52:13.874Z,27.63
2023-01-01T00:54:40.674Z,29.13
2023-01-01T00:57:07.410Z,26.30
2023-01-01T00:59:34.097Z,33.30
2023-01-01T01:02:01.296Z,26.30
2023-01-01T01:04:28.137Z,29.40
2023-01-01T01:06:54.971Z,27.85
2023-01-01T01:09:21.709Z,21.13
2023-01-01T01:11:48.437Z,21.10
2023-01-01T01:14:15.209Z,18.60
2023-01-01T01:16:42.115Z,23.27
2023-01-01T01:19:13.833Z,19.75
2023-01-01T01:21:41.112Z,20.27
2023-01-01T01:24:08.040Z,19.40
2023-01-01T01:26:36.548Z,22.05
2023-01-01T01:29:04.163Z,22.15
2023-01-01T01:31:34.504Z,19.30
2023-01-01T01:34:02.048Z,20.02
2023-01-01T01:36:29.242Z,23.90
2023-01-01T01:38:57.003Z,18.27
2023-01-01T01:41:28.306Z,19.38
2023-01-01T01:44:03.111Z,21.50
2023-01-01T01:49:29.705Z,19.80
2023-01-01T01:51:56.942Z,19.30
2023-01-01T01:54:25.953Z,20.20
2023-01-01T01:57:02.805Z,20.83
2023-01-01T01:59:35.560Z,28.83
2023-01-01T02:02:02.746Z,22.90
2023-01-01T02:04:29.818Z,22.63
2023-01-01T02:06:57.132Z,17.52
2023-01-01T02:09:23.789Z,18.38
2023-01-01T02:11:50.691Z,20.30
2023-01-01T02:14:17.362Z,18.10
2023-01-01T02:16:50.514Z,20.17
2023-01-01T02:20:03.686Z,17.73
2023-01-01T02:23:04.536Z,20.10
2023-01-01T02:26:42.343Z,18.75
2023-01-01T02:29:23.838Z,16.20
2023-01-01T02:32:03.382Z,22.15
2023-01-01T02:34:37.511Z,21.33
2023-01-01T02:37:07.691Z,20.02
2023-01-01T02:39:39.299Z,19.65
2023-01-01T02:42:08.964Z,21.35
2023-01-01T02:44:40.426Z,20.05
2023-01-01T02:47:11.192Z,18.90
2023-01-01T02:49:47.126Z,16.90
2023-01-01T02:52:55.384Z,19.40
2023-01-01T02:55:53.184Z,21.88
2023-01-01T02:58:57.260Z,19.38
2023-01-01T03:01:40.294Z,20.40
2023-01-01T03:04:19.011Z,18.80
2023-01-01T03:07:06.278Z,21.67
2023-01-01T03:09:56.238Z,23.45
2023-01-01T03:12:50.825Z,19.65
2023-01-01T03:15:57.247Z,21.70
2023-01-01T03:18:47.181Z,18.83
2023-01-01T03:23:50.345Z,17.85
2023-01-01T03:26:21.218Z,18.85
2023-01-01T03:28:55.386Z,20.17
2023-01-01T03:31:26.104Z,17.83
2023-01-01T03:34:03.969Z,20.65
2023-01-01T03:36:37.223Z,20.13
2023-01-01T03:39:18.624Z,19.60
2023-01-01T03:41:58.585Z,19.58
2023-01-01T03:44:47.474Z,22.13
2023-01-01T03:47:14.818Z,20.25
2023-01-01T03:49:42.601Z,19.10
2023-01-01T03:52:26.799Z,21.25
2023-01-01T03:55:08.151Z,19.77
2023-01-01T03:58:08.065Z,19.88
2023-01-01T04:00:46.969Z,19.73
2023-01-01T04:03:18.684Z,21.13
2023-01-01T04:05:45.853Z,20.60
2023-01-01T04:08:14.989Z,20.15
2023-01-01T04:10:54.967Z,22.90
2023-01-01T04:13:21.632Z,19.55
2023-01-01T04:15:48.967Z,21.55
2023-01-01T04:18:15.726Z,17.52
2023-01-01T04:20:42.912Z,19.05
2023-01-01T04:23:09.745Z,19.40
2023-01-01T04:25:36.697Z,20.10
2023-01-01T04:28:03.642Z,18.15
2023-01-01T04:30:30.826Z,19.45
2023-01-01T04:32:57.719Z,19.30
2023-01-01T04:35:24.426Z,18.73
2023-01-01T04:37:51.213Z,17.75
2023-01-01T04:40:18.061Z,19.33
2023-01-01T04:42:44.776Z,18.98
2023-01-01T04:45:14.952Z,20.92
2023-01-01T04:47:41.925Z,19.13
2023-01-01T04:50:09.420Z,17.75
2023-01-01T04:52:36.384Z,17.52
2023-01-01T04:55:03.207Z,20.08
2023-01-01T04:57:30.977Z,16.88
2023-01-01T04:59:57.924Z,18.38
2023-01-01T05:02:24.693Z,18.08
2023-01-01T05:04:51.857Z,19.95
2023-01-01T05:07:19.570Z,18.38
2023-01-01T05:09:46.205Z,18.38
2023-01-01T05:12:12.865Z,19.55
2023-01-01T05:14:39.607Z,19.88
2023-01-01T05:17:06.368Z,17.30
2023-01-01T05:19:33.146Z,20.85
2023-01-01T05:22:03.984Z,16.05
2023-01-01T05:24:36.381Z,20.23
2023-01-01T05:27:03.289Z,16.65
2023-01-01T05:29:29.917Z,18.95
2023-01-01T05:31:56.576Z,18.70
2023-01-01T05:34:23.395Z,19.10
2023-01-01T05:36:50.012Z,18.73
2023-01-01T05:39:16.661Z,20.83
2023-01-01T05:41:43.301Z,18.15
2023-01-01T05:44:10.422Z,20.63
2023-01-01T05:46:37.196Z,19.40
2023-01-01T05:49:04.399Z,17.20
2023-01-01T05:53:58.724Z,17.48
2023-01-01T05:56:26.921Z,19.27
2023-01-01T05:58:55.043Z,19.55
2023-01-01T06:01:28.611Z,17.92
2023-01-01T06:03:57.124Z,16.75
2023-01-01T06:06:30.149Z,18.52
2023-01-01T06:09:00.600Z,18.23
2023-01-01T06:11:28.200Z,18.95
2023-01-01T06:13:57.816Z,16.95
2023-01-01T06:16:26.183Z,18.42
2023-01-01T06:18:52.978Z,16.60
2023-01-01T06:21:23.542Z,16.95
2023-01-01T06:23:50.587Z,18.10
2023-01-01T06:26:23.550Z,17.33
2023-01-01T06:28:50.883Z,17.92
2023-01-01T06:31:21.213Z,17.60
2023-01-01T06:33:50.829Z,18.60
2023-01-01T06:36:20.637Z,16.42
2023-01-01T06:38:50.299Z,16.98
2023-01-01T06:41:20.448Z,18.13
2023-01-01T06:43:48.212Z,17.63
2023-01-01T06:46:30.252Z,17.55
2023-01-01T06:49:04.671Z,20.00
2023-01-01T06:51:36.520Z,20.60
2023-01-01T06:54:05.268Z,19.60
2023-01-01T06:56:32.408Z,20.02
2023-01-01T06:58:59.771Z,20.10
2023-01-01T07:01:32.335Z,19.55
2023-01-01T07:04:02.377Z,19.45
2023-01-01T07:06:31.746Z,21.88
2023-01-01T07:08:58.538Z,21.55
2023-01-01T07:11:26.285Z,21.85
2023-01-01T07:13:53.506Z,17.40
2023-01-01T07:16:21.079Z,19.23
2023-01-01T07:18:49.173Z,21.42
2023-01-01T07:21:32.103Z,18.27
2023-01-01T07:24:05.030Z,19.55
2023-01-01T07:26:33.391Z,17.33
2023-01-01T07:29:08.578Z,19.10
2023-01-01T07:31:40.607Z,17.30
2023-01-01T07:34:13.349Z,17.23
2023-01-01T07:36:41.155Z,18.75
2023-01-01T07:39:08.173Z,18.67
2023-01-01T07:41:34.891Z,20.50
2023-01-01T07:44:02.378Z,17.63
2023-01-01T07:46:29.330Z,20.23
2023-01-01T07:48:57.048Z,19.85
2023-01-01T07:51:23.743Z,19.23
2023-01-01T07:53:51.292Z,19.10
2023-01-01T07:56:18.241Z,21.17
2023-01-01T07:58:44.973Z,18.55
2023-01-01T08:01:14.721Z,18.77
2023-01-01T08:03:42.072Z,17.90
2023-01-01T08:06:11.198Z,21.75
2023-01-01T08:08:38.555Z,19.80
2023-01-01T08:11:06.033Z,26.02
2023-01-01T08:13:32.663Z,18.83
2023-01-01T08:15:59.747Z,19.15
2023-01-01T08:18:26.659Z,20.50
2023-01-01T08:20:54.171Z,18.88
2023-01-01T08:23:20.868Z,18.75
2023-01-01T08:25:47.536Z,18.38
2023-01-01T08:28:14.173Z,20.15
2023-01-01T08:30:40.852Z,18.02
2023-01-01T08:33:07.478Z,18.80
2023-01-01T08:35:37.891Z,17.77
2023-01-01T08:38:05.741Z,18.88
2023-01-01T08:40:32.503Z,18.10
2023-01-01T08:42:59.161Z,18.63
2023-01-01T08:45:25.928Z,18.00
2023-01-01T08:47:52.685Z,20.20
2023-01-01T08:50:19.424Z,22.38
2023-01-01T08:52:46.078Z,19.95
2023-01-01T08:55:12.770Z,19.00
2023-01-01T08:57:39.437Z,20.38
2023-01-01T09:00:09.549Z,21.10
2023-01-01T09:02:36.375Z,20.63
2023-01-01T09:05:03.358Z,21.88
2023-01-01T09:07:30.115Z,18.70
2023-01-01T09:09:56.776Z,21.27
2023-01-01T09:12:23.465Z,22.40
2023-01-01T09:14:50.178Z,17.00
2023-01-01T09:17:17.104Z,18.90
2023-01-01T09:19:43.887Z,19.52
2023-01-01T09:22:11.652Z,20.80
2023-01-01T09:24:38.468Z,18.00
2023-01-01T09:27:05.397Z,18.15
2023-01-01T09:29:32.230Z,18.35
2023-01-01T09:31:58.903Z,18.13
2023-01-01T09:34:25.643Z,19.33
2023-01-01T09:36:52.315Z,18.67
2023-01-01T09:39:18.967Z,18.25
2023-01-01T09:42:16.846Z,19.40
2023-01-01T09:45:15.319Z,20.20
2023-01-01T09:47:47.341Z,18.02
2023-01-01T09:50:46.323Z,19.55
2023-01-01T09:53:32.628Z,20.65
2023-01-01T09:56:04.627Z,18.88
2023-01-01T09:58:37.578Z,21.02
2023-01-01T10:01:31.678Z,20.75
2023-01-01T10:04:04.798Z,22.52
2023-01-01T10:06:34.333Z,25.17
2023-01-01T10:09:26.553Z,23.83
2023-01-01T10:11:59.200Z,25.35
2023-01-01T10:14:45.794Z,26.88
2023-01-01T10:17:31.971Z,24.17
2023-01-01T10:20:06.459Z,25.02
2023-01-01T10:22:47.467Z,25.33
2023-01-01T10:25:27.837Z,25.50
2023-01-01T10:28:01.002Z,27.15
2023-01-01T10:30:29.678Z,28.50
2023-01-01T10:32:57.771Z,27.05
2023-01-01T10:35:58.614Z,26.88
2023-01-01T10:38:27.000Z,25.77
2023-01-01T10:41:03.960Z,25.02
2023-01-01T10:43:30.682Z,26.42
2023-01-01T10:45:59.920Z,25.48
2023-01-01T10:48:30.509Z,25.70
2023-01-01T10:51:07.933Z,25.45
2023-01-01T10:53:41.224Z,23.25
2023-01-01T10:56:20.458Z,22.90
2023-01-01T10:58:56.600Z,26.23
2023-01-01T11:01:31.789Z,26.95
2023-01-01T11:04:03.201Z,25.52
2023-01-01T11:06:39.417Z,25.65
2023-01-01T11:09:36.864Z,26.98
2023-01-01T11:12:15.232Z,26.45
2023-01-01T11:14:55.222Z,25.10
2023-01-01T11:17:29.422Z,31.98
2023-01-01T11:22:46.857Z,27.88
2023-01-01T11:25:28.612Z,27.48
2023-01-01T11:28:35.260Z,27.08
2023-01-01T11:31:09.844Z,25.95
2023-01-01T11:33:52.489Z,25.33
2023-01-01T11:36:29.324Z,33.17
2023-01-01T11:39:14.239Z,25.35
2023-01-01T11:41:47.260Z,24.83
2023-01-01T11:44:36.138Z,28.35
2023-01-01T11:47:05.893Z,22.58
2023-01-01T11:49:33.359Z,23.92
2023-01-01T11:52:00.628Z,25.60
2023-01-01T11:54:31.090Z,27.02
2023-01-01T11:57:22.277Z,22.00
2023-01-01T11:59:56.229Z,25.00
2023-01-01T12:02:35.605Z,24.60
2023-01-01T12:05:25.012Z,28.48
2023-01-01T12:07:52.928Z,24.23
2023-01-01T12:10:30.393Z,27.27
2023-01-01T12:13:22.257Z,26.80
2023-01-01T12:16:11.358Z,25.08
2023-01-01T12:19:00.897Z,26.98
2023-01-01T12:21:29.313Z,27.70
2023-01-01T12:23:56.037Z,25.65
2023-01-01T12:26:30.027Z,28.75
2023-01-01T12:29:13.455Z,27.77
2023-01-01T12:32:23.125Z,27.92
2023-01-01T12:35:25.125Z,27.15
2023-01-01T12:38:15.371Z,26.60
2023-01-01T12:41:15.662Z,31.65
2023-01-01T12:44:16.191Z,34.33
2023-01-01T12:47:08.847Z,25.20
2023-01-01T12:49:44.106Z,28.30
2023-01-01T12:53:00.435Z,26.45
2023-01-01T12:55:57.545Z,26.48
2023-01-01T12:58:36.145Z,24.27
2023-01-01T13:01:33.435Z,24.35
2023-01-01T13:04:05.938Z,28.13
2023-01-01T13:06:49.184Z,26.55
2023-01-01T13:09:21.849Z,26.73
2023-01-01T13:12:13.608Z,22.48
2023-01-01T13:14:45.187Z,24.83
2023-01-01T13:17:29.357Z,22.90
2023-01-01T13:20:14.686Z,23.30
2023-01-01T13:22:44.045Z,22.38
2023-01-01T13:25:16.587Z,25.27
2023-01-01T13:28:03.373Z,25.20
2023-01-01T13:30:39.679Z,25.60
2023-01-01T13:33:29.970Z,26.48
2023-01-01T13:36:09.296Z,24.10
2023-01-01T13:38:55.989Z,28.45
2023-01-01T13:41:35.361Z,27.15
2023-01-01T13:44:03.139Z,29.88
2023-01-01T13:46:32.921Z,27.85
2023-01-01T13:49:18.685Z,24.60
2023-01-01T13:52:19.851Z,20.10
2023-01-01T13:55:04.804Z,18.98
2023-01-01T13:58:15.254Z,22.48
2023-01-01T14:01:13.048Z,27.25
2023-01-01T14:03:46.547Z,23.55
2023-01-01T14:06:20.733Z,21.73
2023-01-01T14:09:20.617Z,21.88
2023-01-01T14:11:48.537Z,20.25
2023-01-01T14:14:24.234Z,20.77
2023-01-01T14:16:53.773Z,29.83
2023-01-01T14:19:21.102Z,21.10
2023-01-01T14:21:48.135Z,23.08
2023-01-01T14:24:18.181Z,20.08
2023-01-01T14:26:45.377Z,18.98
2023-01-01T14:29:41.719Z,17.98
2023-01-01T14:32:22.693Z,17.42
2023-01-01T14:35:02.148Z,18.50
2023-01-01T14:37:28.877Z,17.45
2023-01-01T14:40:29.548Z,19.60
2023-01-01T14:43:05.577Z,24.25
2023-01-01T14:45:36.342Z,19.35
2023-01-01T14:48:04.250Z,21.55
2023-01-01T14:50:34.147Z,17.27
2023-01-01T14:53:18.759Z,18.65
2023-01-01T14:55:47.672Z,19.63
2023-01-01T14:58:25.314Z,21.67
2023-01-01T15:00:53.070Z,22.17
2023-01-01T15:03:23.415Z,21.02
2023-01-01T15:06:02.805Z,18.75
2023-01-01T15:08:29.762Z,19.38
2023-01-01T15:10:57.385Z,19.00
2023-01-01T15:13:28.376Z,22.08
2023-01-01T15:15:57.723Z,20.48
2023-01-01T15:18:43.290Z,17.50
2023-01-01T15:21:13.905Z,20.40
2023-01-01T15:23:54.029Z,19.10
2023-01-01T15:26:57.528Z,21.17
2023-01-01T15:29:29.682Z,18.75
2023-01-01T15:32:08.819Z,19.42
2023-01-01T15:35:24.858Z,18.70
2023-01-01T15:38:17.522Z,20.63
2023-01-01T15:40:49.402Z,21.05
2023-01-01T15:43:29.669Z,20.25
2023-01-01T15:45:59.113Z,21.60
2023-01-01T15:48:43.447Z,23.60
2023-01-01T15:51:25.699Z,20.05
2023-01-01T15:54:01.862Z,19.40
2023-01-01T15:56:39.415Z,21.05
2023-01-01T15:59:23.764Z,23.92
2023-01-01T16:01:51.489Z,22.27
2023-01-01T16:04:29.043Z,22.48
2023-01-01T16:06:57.906Z,20.73
2023-01-01T16:09:24.649Z,27.80
2023-01-01T16:11:57.166Z,28.85
2023-01-01T16:14:24.334Z,27.08
2023-01-01T16:17:00.430Z,25.73
2023-01-01T16:19:30.267Z,26.60
2023-01-01T16:21:57.106Z,27.50
2023-01-01T16:24:24.621Z,23.45
2023-01-01T16:26:53.058Z,30.10
2023-01-01T16:29:19.777Z,26.50
2023-01-01T16:31:48.055Z,28.52
2023-01-01T16:34:15.238Z,24.77
2023-01-01T16:36:43.538Z,26.52
2023-01-01T16:39:11.114Z,28.20
2023-01-01T16:41:42.431Z,32.42
2023-01-01T16:44:14.499Z,27.50
2023-01-01T16:46:42.115Z,25.10
2023-01-01T16:49:08.962Z,27.67
2023-01-01T16:51:35.878Z,27.90
2023-01-01T16:54:03.262Z,26.38
2023-01-01T16:56:30.238Z,26.77
2023-01-01T16:59:02.881Z,26.38
2023-01-01T17:01:30.632Z,24.42
2023-01-01T17:03:57.522Z,23.95
2023-01-01T17:06:24.255Z,27.92
2023-01-01T17:08:51.085Z,25.20
2023-01-01T17:11:18.746Z,25.25
2023-01-01T17:13:47.931Z,24.27
2023-01-01T17:16:25.235Z,27.42
2023-01-01T17:21:41.958Z,25.88
2023-01-01T17:24:09.001Z,26.63
2023-01-01T17:26:35.711Z,26.02
2023-01-01T17:29:03.046Z,28.25
2023-01-01T17:31:30.152Z,26.02
2023-01-01T17:33:57.064Z,27.00
2023-01-01T17:36:23.975Z,29.85
2023-01-01T17:38:50.689Z,27.80
2023-01-01T17:41:18.195Z,27.70
2023-01-01T17:43:48.184Z,26.83
2023-01-01T17:46:33.593Z,30.80
2023-01-01T17:49:02.320Z,30.08
2023-01-01T17:51:29.811Z,30.50
2023-01-01T17:53:56.983Z,29.35
2023-01-01T17:56:24.992Z,27.80
2023-01-01T17:58:53.867Z,28.70
2023-01-01T18:01:23.843Z,29.08
2023-01-01T18:04:05.919Z,28.98
2023-01-01T18:06:40.255Z,29.30
2023-01-01T18:09:12.584Z,27.95
2023-01-01T18:11:40.137Z,30.42
2023-01-01T18:14:07.160Z,27.13
2023-01-01T18:16:36.692Z,29.95
2023-01-01T18:19:05.226Z,29.33
2023-01-01T18:21:33.582Z,36.30
2023-01-01T18:24:01.626Z,29.40
2023-01-01T18:26:30.983Z,29.92
2023-01-01T18:29:01.208Z,28.90
2023-01-01T18:31:31.213Z,30.60
2023-01-01T18:33:58.157Z,32.55
2023-01-01T18:36:31.930Z,31.85
2023-01-01T18:39:21.723Z,31.85
2023-01-01T18:41:48.285Z,30.90
2023-01-01T18:44:22.666Z,31.05
2023-01-01T18:47:14.359Z,29.25
2023-01-01T18:49:48.595Z,28.42
2023-01-01T18:52:20.457Z,32.28
2023-01-01T18:54:47.561Z,27.98
2023-01-01T18:57:29.212Z,27.10
2023-01-01T19:00:00.313Z,24.05
2023-01-01T19:02:39.173Z,24.38
2023-01-01T19:05:17.310Z,26.50
2023-01-01T19:07:57.887Z,24.95
2023-01-01T19:10:25.333Z,24.98
2023-01-01T19:12:54.910Z,24.67
2023-01-01T19:15:22.128Z,27.60
2023-01-01T19:17:49.517Z,26.80
2023-01-01T19:20:20.068Z,26.75
2023-01-01T19:22:47.686Z,27.13
2023-01-01T19:25:36.747Z,26.80
2023-01-01T19:28:32.473Z,27.38
2023-01-01T19:31:00.487Z,26.25
2023-01-01T19:33:27.779Z,27.52
2023-01-01T19:35:54.458Z,25.35
2023-01-01T19:38:21.305Z,27.88
2023-01-01T19:40:48.568Z,26.55
2023-01-01T19:43:15.299Z,28.17
2023-01-01T19:45:41.997Z,23.58
2023-01-01T19:48:08.713Z,26.10
2023-01-01T19:50:35.463Z,23.23
2023-01-01T19:53:02.146Z,28.38
2023-01-01T19:55:28.821Z,21.90
2023-01-01T19:57:55.547Z,24.92
2023-01-01T20:00:22.840Z,26.05
2023-01-01T20:02:49.934Z,24.95
2023-01-01T20:05:16.852Z,24.15
2023-01-01T20:07:43.550Z,25.33
2023-01-01T20:10:10.777Z,25.35
2023-01-01T20:12:37.448Z,26.83
2023-01-01T20:15:04.768Z,26.60
2023-01-01T20:17:31.594Z,26.23
2023-01-01T20:19:58.522Z,24.65
2023-01-01T20:22:25.413Z,24.88
2023-01-01T20:24:52.218Z,19.70
2023-01-01T20:27:24.180Z,21.65
2023-01-01T20:29:51.538Z,23.15
2023-01-01T20:32:18.580Z,18.17
2023-01-01T20:34:45.429Z,20.60
2023-01-01T20:37:30.767Z,21.70
2023-01-01T20:39:57.509Z,19.38
2023-01-01T20:42:25.334Z,20.08
2023-01-01T20:44:52.088Z,19.88
2023-01-01T20:47:18.823Z,19.50
2023-01-01T20:49:45.499Z,18.70
2023-01-01T20:52:12.303Z,20.27
2023-01-01T20:54:38.961Z,23.05
2023-01-01T20:57:05.758Z,21.30
2023-01-01T20:59:37.316Z,17.80
2023-01-01T21:02:11.149Z,21.13
2023-01-01T21:04:39.591Z,23.58
2023-01-01T21:07:09.158Z,26.02
2023-01-01T21:09:36.949Z,17.70
2023-01-01T21:12:04.295Z,21.70
2023-01-01T21:14:31.318Z,22.40
2023-01-01T21:17:18.405Z,20.90
2023-01-01T21:19:45.340Z,19.92
2023-01-01T21:22:12.955Z,20.13
2023-01-01T21:24:40.027Z,21.17
2023-01-01T21:27:23.942Z,20.77
2023-01-01T21:29:53.587Z,21.02
2023-01-01T21:32:42.778Z,20.10
2023-01-01T21:35:32.816Z,21.02
2023-01-01T21:38:00.163Z,22.67
2023-01-01T21:40:41.875Z,21.05
2023-01-01T21:43:08.456Z,22.27
2023-01-01T21:45:40.685Z,21.45
2023-01-01T21:48:19.534Z,17.88
2023-01-01T21:50:48.436Z,19.05
2023-01-01T21:53:22.252Z,20.23
2023-01-01T21:55:54.491Z,20.52
2023-01-01T21:58:51.386Z,19.88
2023-01-01T22:01:25.584Z,24.60
2023-01-01T22:04:00.053Z,23.80
2023-01-01T22:06:38.848Z,20.90
2023-01-01T22:09:29.076Z,19.65
2023-01-01T22:12:24.275Z,22.73
2023-01-01T22:14:55.161Z,22.88
2023-01-01T22:17:36.749Z,19.23
2023-01-01T22:20:19.805Z,20.48
2023-01-01T22:22:46.484Z,21.33
2023-01-01T22:25:27.459Z,16.60
2023-01-01T22:27:54.784Z,25.05
2023-01-01T22:30:42.673Z,19.02
2023-01-01T22:33:18.066Z,19.48
2023-01-01T22:35:45.661Z,21.55
2023-01-01T22:38:20.988Z,17.42
2023-01-01T22:40:50.492Z,19.05
2023-01-01T22:43:22.539Z,18.65
2023-01-01T22:45:49.986Z,20.98
2023-01-01T22:48:31.666Z,16.50
2023-01-01T22:51:06.499Z,19.60
2023-01-01T22:53:33.281Z,20.60
2023-01-01T22:55:59.962Z,20.00
2023-01-01T22:58:26.643Z,19.63
2023-01-01T23:00:53.423Z,17.35
2023-01-01T23:03:20.145Z,19.77
2023-01-01T23:05:46.967Z,20.55
2023-01-01T23:08:13.633Z,19.13
2023-01-01T23:10:40.346Z,21.50
2023-01-01T23:13:25.405Z,18.45
2023-01-01T23:16:00.993Z,21.83
2023-01-01T23:18:35.977Z,17.20
2023-01-01T23:21:08.769Z,18.98
2023-01-01T23:23:36.781Z,19.50
2023-01-01T23:26:04.981Z,18.60
2023-01-01T23:28:32.339Z,18.70
2023-01-01T23:31:02.487Z,17.83
2023-01-01T23:33:30.253Z,20.08
2023-01-01T23:35:57.219Z,15.48
2023-01-01T23:38:24.750Z,18.25
2023-01-01T23:40:51.455Z,18.65
2023-01-01T23:43:18.208Z,20.23
2023-01-01T23:45:46.220Z,18.40
2023-01-01T23:48:13.877Z,19.90
2023-01-01T23:50:40.664Z,21.65
2023-01-01T23:53:08.868Z,21.95
2023-01-01T23:55:35.552Z,19.15
2023-01-01T23:58:02.297Z,21.27
